Time;durP1;ratioP1;P1;durP2;ratioP2;P2;SDS_P1;SDS_P2;PMS_P1;PMS_P2;Temp;Humidity;BMP_temperature;BMP_pressure;BME280_temperature;BME280_humidity;BME280_pressure;Samples;Min_cycle;Max_cycle;Signal;HPM_P1;HPM_P2
2021/04/23 00:01:42;;;;;;;6.10;2.30;;;4.90;96.60;;;;;;5101268;28;20043;-83
2021/04/23 00:04:08;;;;;;;6.32;2.13;;;4.80;96.30;;;;;;5092657;28;20030;-82
2021/04/23 00:06:42;;;;;;;6.15;2.67;;;4.80;96.40;;;;;;5108748;28;20081;-83
2021/04/23 00:09:16;;;;;;;6.38;2.40;;;4.80;96.40;;;;;;5098462;28;20031;-82
2021/04/23 00:11:51;;;;;;;4.65;1.80;;;4.80;96.50;;;;;;5101657;28;20070;-81
2021/04/23 00:14:20;;;;;;;6.90;2.53;;;4.80;96.50;;;;;;5114497;28;20034;-80
2021/04/23 00:16:46;;;;;;;9.20;2.47;;;4.80;96.70;;;;;;5100198;28;20364;-83
2021/04/23 00:19:16;;;;;;;7.20;2.22;;;4.70;96.70;;;;;;5106150;28;20020;-84
2021/04/23 00:21:43;;;;;;;6.30;2.53;;;4.70;96.90;;;;;;5092199;28;20439;-85
2021/04/23 00:24:09;;;;;;;4.38;2.10;;;4.70;97.00;;;;;;5110230;28;20030;-83
2021/04/23 00:26:35;;;;;;;7.20;2.40;;;4.60;97.00;;;;;;5098608;28;20028;-82
2021/04/23 00:29:01;;;;;;;7.57;2.10;;;4.60;97.10;;;;;;5107057;28;20032;-86
2021/04/23 00:31:26;;;;;;;4.82;2.35;;;4.60;97.20;;;;;;5100563;28;20498;-84
2021/04/23 00:33:52;;;;;;;5.60;2.10;;;4.60;97.20;;;;;;5097567;28;20028;-85
2021/04/23 00:36:18;;;;;;;7.95;2.60;;;4.60;97.20;;;;;;5090595;28;20103;-85
2021/04/23 00:38:45;;;;;;;7.65;2.42;;;4.50;97.30;;;;;;5097339;28;20026;-88
2021/04/23 00:41:13;;;;;;;7.15;2.10;;;4.50;97.40;;;;;;5093940;28;20048;-84
2021/04/23 00:43:42;;;;;;;6.57;2.10;;;4.50;97.40;;;;;;5102058;28;20023;-84
2021/04/23 00:46:09;;;;;;;7.65;2.17;;;4.50;97.50;;;;;;5097331;28;20508;-86
2021/04/23 00:48:44;;;;;;;5.30;2.75;;;4.40;97.60;;;;;;5093703;28;20079;-85
2021/04/23 00:51:13;;;;;;;6.20;2.15;;;4.40;97.70;;;;;;5091145;28;20042;-84
2021/04/23 00:53:42;;;;;;;6.03;2.17;;;4.30;97.80;;;;;;5096507;28;20021;-84
2021/04/23 00:56:11;;;;;;;4.72;2.30;;;4.30;97.80;;;;;;5104666;28;20119;-80
2021/04/23 00:58:38;;;;;;;4.82;2.35;;;4.30;97.90;;;;;;5104730;28;20016;-81
2021/04/23 01:01:13;;;;;;;5.07;2.28;;;4.30;97.90;;;;;;5106034;28;20059;-80
2021/04/23 01:03:39;;;;;;;7.25;2.50;;;4.30;98.00;;;;;;5099193;28;20073;-80
2021/04/23 01:06:13;;;;;;;4.45;1.95;;;4.20;97.90;;;;;;5102957;28;20401;-85
2021/04/23 01:08:40;;;;;;;6.95;2.40;;;4.20;98.00;;;;;;5095885;28;20093;-85
2021/04/23 01:11:06;;;;;;;5.95;1.98;;;4.20;98.00;;;;;;5094676;28;20048;-86
2021/04/23 01:13:32;;;;;;;4.63;2.03;;;4.10;98.10;;;;;;5097847;28;20027;-81
2021/04/23 01:15:59;;;;;;;5.43;2.15;;;4.20;98.10;;;;;;5104067;28;20020;-81
2021/04/23 01:18:25;;;;;;;5.35;2.10;;;4.10;98.20;;;;;;5103991;28;20028;-86
2021/04/23 01:21:08;;;;;;;4.93;2.92;;;4.10;98.20;;;;;;5102760;28;20120;-83
2021/04/23 01:23:35;;;;;;;6.97;2.28;;;4.20;98.30;;;;;;5103400;28;20031;-85
2021/04/23 01:26:04;;;;;;;6.45;2.88;;;4.20;98.30;;;;;;5100888;28;20070;-82
2021/04/23 01:28:29;;;;;;;4.55;2.28;;;4.20;98.30;;;;;;5108305;28;20031;-80
2021/04/23 01:30:58;;;;;;;5.88;2.28;;;4.20;98.20;;;;;;5105057;28;20040;-82
2021/04/23 01:33:25;;;;;;;4.88;2.70;;;4.20;98.30;;;;;;5101570;28;20028;-86
2021/04/23 01:35:51;;;;;;;8.13;2.70;;;4.10;98.30;;;;;;5096501;28;20030;-87
2021/04/23 01:38:16;;;;;;;5.13;2.40;;;4.10;98.50;;;;;;5098866;28;20048;-83
2021/04/23 01:40:44;;;;;;;6.90;2.60;;;4.00;98.50;;;;;;5099911;28;20052;-83
2021/04/23 01:43:10;;;;;;;7.60;2.20;;;4.00;98.60;;;;;;5107836;28;20039;-81
2021/04/23 01:45:37;;;;;;;7.20;3.38;;;4.00;98.70;;;;;;5106960;28;20074;-80
2021/04/23 01:48:03;;;;;;;7.53;2.10;;;3.90;98.80;;;;;;5106801;28;20111;-79
2021/04/23 01:50:28;;;;;;;5.97;2.65;;;3.90;98.80;;;;;;5106179;28;20032;-79
2021/04/23 01:52:54;;;;;;;5.32;2.75;;;3.90;99.20;;;;;;5105300;28;20505;-83
2021/04/23 01:55:22;;;;;;;6.55;2.80;;;3.80;99.00;;;;;;5102255;28;20107;-80
2021/04/23 01:57:49;;;;;;;7.38;2.50;;;3.80;99.00;;;;;;5101501;28;20039;-82
2021/04/23 02:00:20;;;;;;;9.30;2.58;;;3.80;99.10;;;;;;5099036;28;20044;-86
2021/04/23 02:02:46;;;;;;;6.28;2.38;;;3.70;99.20;;;;;;5101387;28;20099;-82
2021/04/23 02:05:13;;;;;;;8.57;2.75;;;3.70;99.30;;;;;;5099394;28;20074;-83
2021/04/23 02:07:38;;;;;;;7.72;2.50;;;3.70;99.30;;;;;;5094206;28;20024;-86
2021/04/23 02:10:08;;;;;;;5.93;3.00;;;3.70;99.30;;;;;;5099355;28;20369;-83
2021/04/23 02:12:34;;;;;;;7.15;2.45;;;3.60;99.40;;;;;;5098316;28;20055;-86
2021/04/23 02:15:00;;;;;;;6.88;2.30;;;3.60;99.40;;;;;;5094987;28;20371;-85
2021/04/23 02:17:25;;;;;;;6.10;2.25;;;3.60;99.50;;;;;;5093201;28;20074;-86
2021/04/23 02:19:51;;;;;;;6.75;2.45;;;3.60;99.50;;;;;;5092818;28;20059;-86
2021/04/23 02:22:17;;;;;;;5.00;2.63;;;3.60;99.60;;;;;;5094144;28;20058;-85
2021/04/23 02:24:43;;;;;;;5.93;2.35;;;3.50;99.60;;;;;;5092592;28;20031;-85
2021/04/23 02:27:08;;;;;;;5.28;2.42;;;3.50;99.70;;;;;;5092468;28;20073;-87
2021/04/23 02:29:34;;;;;;;6.55;2.63;;;3.40;99.80;;;;;;5095260;28;20023;-86
2021/04/23 02:32:00;;;;;;;5.70;2.75;;;3.40;99.80;;;;;;5093613;28;20046;-85
2021/04/23 02:34:26;;;;;;;6.90;2.75;;;3.30;99.80;;;;;;5092244;28;20185;-85
2021/04/23 02:36:52;;;;;;;6.30;2.70;;;3.40;99.80;;;;;;5092525;28;20026;-85
2021/04/23 02:39:19;;;;;;;5.68;2.28;;;3.40;99.90;;;;;;5094199;28;20012;-84
2021/04/23 02:41:48;;;;;;;5.60;2.80;;;3.30;99.90;;;;;;5093098;28;20079;-87
2021/04/23 02:44:14;;;;;;;4.28;2.50;;;3.30;99.90;;;;;;5092691;28;20020;-83
2021/04/23 02:46:42;;;;;;;5.55;2.95;;;3.30;99.90;;;;;;5092532;28;20052;-86
2021/04/23 02:49:08;;;;;;;5.78;2.53;;;3.20;99.90;;;;;;5093624;28;20418;-84
2021/04/23 02:51:37;;;;;;;6.00;2.75;;;3.20;99.90;;;;;;5092998;28;20132;-86
2021/04/23 02:54:04;;;;;;;5.82;2.63;;;3.20;99.90;;;;;;5097191;28;20101;-82
2021/04/23 02:56:29;;;;;;;5.43;2.80;;;3.20;99.90;;;;;;5079173;28;20484;-86
2021/04/23 02:58:56;;;;;;;5.57;2.70;;;3.20;99.90;;;;;;5094537;28;20024;-86
2021/04/23 03:01:25;;;;;;;7.10;2.85;;;3.10;99.90;;;;;;5095075;28;20048;-86
2021/04/23 03:03:51;;;;;;;6.15;2.85;;;3.20;99.90;;;;;;5093185;28;20021;-85
2021/04/23 03:06:16;;;;;;;6.30;3.22;;;3.10;99.90;;;;;;5092859;28;20169;-85
2021/04/23 03:08:43;;;;;;;4.68;2.38;;;3.10;99.90;;;;;;5096016;28;20026;-86
2021/04/23 03:11:17;;;;;;;6.70;2.78;;;3.10;99.90;;;;;;5096051;28;20462;-88
2021/04/23 03:13:49;;;;;;;5.38;2.53;;;3.00;99.90;;;;;;5099031;28;20024;-85
2021/04/23 03:16:15;;;;;;;6.32;2.75;;;3.00;99.90;;;;;;5099380;28;20031;-86
2021/04/23 03:18:44;;;;;;;8.23;2.33;;;3.00;99.90;;;;;;5099674;28;20027;-86
2021/04/23 03:21:11;;;;;;;7.72;2.58;;;3.00;99.90;;;;;;5121735;28;20030;-86
2021/04/23 03:23:37;;;;;;;7.30;2.72;;;3.00;99.90;;;;;;5128109;28;20043;-86
2021/04/23 03:26:07;;;;;;;5.70;2.40;;;3.00;99.90;;;;;;5127967;28;20027;-82
2021/04/23 03:28:33;;;;;;;7.43;2.78;;;2.90;99.90;;;;;;5126887;28;20012;-81
2021/04/23 03:30:59;;;;;;;6.70;2.60;;;2.90;99.90;;;;;;5127446;28;20032;-83
2021/04/23 03:33:25;;;;;;;6.43;2.33;;;2.90;99.90;;;;;;5124483;28;20035;-84
2021/04/23 03:35:55;;;;;;;7.25;2.85;;;2.90;99.90;;;;;;5127938;28;20024;-82
2021/04/23 03:38:21;;;;;;;5.68;2.42;;;2.90;99.90;;;;;;5128734;28;20098;-82
2021/04/23 03:40:48;;;;;;;6.20;3.13;;;2.90;99.90;;;;;;5129323;28;20073;-79
2021/04/23 03:43:15;;;;;;;7.03;2.78;;;2.80;99.90;;;;;;5129704;28;20024;-80
2021/04/23 03:45:41;;;;;;;8.52;2.60;;;2.80;99.90;;;;;;5126976;28;20022;-80
2021/04/23 03:48:08;;;;;;;5.93;2.70;;;2.80;99.90;;;;;;5122328;28;20122;-85
2021/04/23 03:50:35;;;;;;;6.55;2.65;;;2.80;99.90;;;;;;5122647;28;20040;-80
2021/04/23 03:53:03;;;;;;;8.88;2.75;;;2.70;99.90;;;;;;5126698;28;20038;-83
2021/04/23 03:55:32;;;;;;;6.07;2.70;;;2.70;99.90;;;;;;5123408;28;20016;-85
2021/04/23 03:57:59;;;;;;;7.68;3.20;;;2.70;99.90;;;;;;5121434;28;20055;-87
2021/04/23 04:00:30;;;;;;;9.07;2.70;;;2.70;99.90;;;;;;5116911;28;20047;-86
2021/04/23 04:02:56;;;;;;;4.63;2.47;;;2.70;99.90;;;;;;5117831;28;20104;-87
2021/04/23 04:05:22;;;;;;;5.40;2.28;;;2.60;99.90;;;;;;5118722;28;20031;-87
2021/04/23 04:07:48;;;;;;;6.05;2.47;;;2.60;99.90;;;;;;5116145;28;20024;-85
2021/04/23 04:10:15;;;;;;;5.32;2.60;;;2.70;99.90;;;;;;5118028;28;20039;-84
2021/04/23 04:12:41;;;;;;;6.60;3.30;;;2.60;99.90;;;;;;5119169;28;20055;-84
2021/04/23 04:15:07;;;;;;;7.95;3.38;;;2.60;99.90;;;;;;5122043;28;20435;-85
2021/04/23 04:17:33;;;;;;;7.43;3.33;;;2.60;99.90;;;;;;5116038;28;20015;-86
2021/04/23 04:20:00;;;;;;;7.13;3.00;;;2.50;99.90;;;;;;5117390;28;20020;-85
2021/04/23 04:22:26;;;;;;;7.25;3.25;;;2.50;99.90;;;;;;5116049;28;20023;-85
2021/04/23 04:24:52;;;;;;;6.65;3.03;;;2.50;99.90;;;;;;5118794;28;20026;-83
2021/04/23 04:27:18;;;;;;;7.97;3.83;;;2.50;99.90;;;;;;5123722;28;20024;-85
2021/04/23 04:29:46;;;;;;;7.90;3.58;;;2.50;99.90;;;;;;5120153;28;20103;-84
2021/04/23 04:32:11;;;;;;;9.07;4.30;;;2.50;99.90;;;;;;5120856;27;20032;-87
2021/04/23 04:34:37;;;;;;;9.77;4.03;;;2.50;99.90;;;;;;5117015;28;20035;-85
2021/04/23 04:37:04;;;;;;;10.13;4.10;;;2.50;99.90;;;;;;5116755;28;20369;-87
2021/04/23 04:39:29;;;;;;;8.30;3.75;;;2.50;99.90;;;;;;5117332;28;20012;-81
2021/04/23 04:41:55;;;;;;;7.55;3.67;;;2.70;99.90;;;;;;5122180;28;20542;-86
2021/04/23 04:44:20;;;;;;;7.60;3.53;;;2.70;99.90;;;;;;5116497;28;20059;-84
2021/04/23 04:46:46;;;;;;;9.05;4.05;;;2.80;99.90;;;;;;5116544;28;20038;-87
2021/04/23 04:49:12;;;;;;;8.80;4.00;;;2.90;99.90;;;;;;5115419;28;20016;-86
2021/04/23 04:51:38;;;;;;;7.70;3.75;;;3.00;99.90;;;;;;5116844;28;20173;-86
2021/04/23 04:54:05;;;;;;;12.38;4.32;;;3.10;99.90;;;;;;5115426;28;20023;-85
2021/04/23 04:56:31;;;;;;;9.73;4.18;;;3.20;99.90;;;;;;5115452;28;20016;-85
2021/04/23 04:58:57;;;;;;;8.50;4.18;;;3.30;99.90;;;;;;5115523;28;20015;-82
2021/04/23 05:01:23;;;;;;;9.98;4.00;;;3.40;99.90;;;;;;5114979;28;20051;-86
2021/04/23 05:03:49;;;;;;;7.15;3.67;;;3.40;99.90;;;;;;5115896;28;20030;-85
2021/04/23 05:06:15;;;;;;;9.00;3.95;;;3.50;99.90;;;;;;5114538;28;20020;-83
2021/04/23 05:08:41;;;;;;;10.20;3.92;;;3.60;99.90;;;;;;5115506;28;20019;-87
2021/04/23 05:11:07;;;;;;;8.55;4.25;;;3.70;99.90;;;;;;5114842;28;20048;-87
2021/04/23 05:13:32;;;;;;;6.18;3.40;;;3.80;99.90;;;;;;5108384;28;20031;-86
2021/04/23 05:15:59;;;;;;;7.43;4.25;;;3.80;99.90;;;;;;5115506;28;20048;-85
2021/04/23 05:18:25;;;;;;;7.20;3.80;;;3.80;99.90;;;;;;5114262;28;20020;-86
2021/04/23 05:20:50;;;;;;;11.18;3.92;;;3.90;99.90;;;;;;5115185;28;20077;-86
2021/04/23 05:23:16;;;;;;;12.75;4.70;;;4.00;99.90;;;;;;5113951;28;20016;-84
2021/04/23 05:25:42;;;;;;;15.20;4.43;;;4.10;99.90;;;;;;5115446;28;20027;-84
2021/04/23 05:28:07;;;;;;;11.98;4.25;;;4.20;99.90;;;;;;5116069;28;20031;-85
2021/04/23 05:30:35;;;;;;;11.18;4.10;;;4.30;99.90;;;;;;5112875;28;20020;-83
2021/04/23 05:33:02;;;;;;;9.60;4.75;;;4.40;99.90;;;;;;5114263;28;20024;-85
2021/04/23 05:35:29;;;;;;;14.23;4.75;;;4.50;99.90;;;;;;5113933;28;20489;-84
2021/04/23 05:37:57;;;;;;;11.07;3.90;;;4.60;99.90;;;;;;5114555;28;20107;-85
2021/04/23 05:40:29;;;;;;;15.68;4.50;;;4.70;99.90;;;;;;5113421;28;20027;-82
2021/04/23 05:42:55;;;;;;;8.75;3.75;;;4.80;99.90;;;;;;5115026;28;20030;-86
2021/04/23 05:45:21;;;;;;;14.52;3.90;;;4.80;99.90;;;;;;5114434;28;20032;-83
2021/04/23 05:47:47;;;;;;;9.75;4.50;;;4.90;99.90;;;;;;5113830;28;20477;-86
2021/04/23 05:50:14;;;;;;;13.52;4.18;;;5.00;99.90;;;;;;5114105;28;20096;-84
2021/04/23 05:52:40;;;;;;;8.75;3.83;;;5.10;99.90;;;;;;5114880;28;20104;-85
2021/04/23 05:55:08;;;;;;;7.00;4.35;;;5.10;99.90;;;;;;5116423;28;20039;-86
2021/04/23 05:57:34;;;;;;;15.23;3.80;;;5.20;99.90;;;;;;5114860;28;20055;-85
2021/04/23 06:00:00;;;;;;;9.18;4.10;;;5.20;99.90;;;;;;5115711;28;20044;-87
2021/04/23 06:02:28;;;;;;;9.05;4.45;;;5.20;99.90;;;;;;5116403;28;20098;-87
2021/04/23 06:04:54;;;;;;;12.27;4.60;;;5.30;99.90;;;;;;5115999;28;20020;-87
2021/04/23 06:07:19;;;;;;;10.20;4.53;;;5.30;99.90;;;;;;5121357;28;20543;-87
2021/04/23 06:09:45;;;;;;;10.90;5.03;;;5.40;99.90;;;;;;5116691;28;20019;-87
2021/04/23 06:12:11;;;;;;;11.57;4.78;;;5.50;99.90;;;;;;5115348;28;20043;-83
2021/04/23 06:14:36;;;;;;;12.50;4.60;;;5.60;99.90;;;;;;5114314;28;20030;-85
2021/04/23 06:17:04;;;;;;;10.00;4.05;;;5.70;99.90;;;;;;5118860;28;20034;-84
2021/04/23 06:19:34;;;;;;;13.98;5.32;;;5.80;99.90;;;;;;5124115;28;20011;-81
2021/04/23 06:22:00;;;;;;;12.73;4.72;;;5.90;99.90;;;;;;5120796;28;20024;-83
2021/04/23 06:24:26;;;;;;;10.23;4.20;;;5.90;99.90;;;;;;5124683;28;20059;-80
2021/04/23 06:26:52;;;;;;;12.30;3.97;;;6.00;99.90;;;;;;5124538;28;20069;-84
2021/04/23 06:29:18;;;;;;;14.27;4.05;;;6.10;99.90;;;;;;5124130;28;20072;-80
2021/04/23 06:31:43;;;;;;;14.38;4.43;;;6.20;99.90;;;;;;5126980;28;20441;-83
2021/04/23 06:34:10;;;;;;;13.75;4.32;;;6.40;99.90;;;;;;5123617;28;20012;-88
2021/04/23 06:36:36;;;;;;;10.90;4.35;;;6.40;99.90;;;;;;5119575;28;20033;-86
2021/04/23 06:39:02;;;;;;;11.52;4.43;;;6.50;99.90;;;;;;5114036;28;20015;-87
2021/04/23 06:41:28;;;;;;;10.32;4.07;;;6.60;99.90;;;;;;5117756;28;20039;-86
2021/04/23 06:43:54;;;;;;;9.25;4.05;;;6.70;99.90;;;;;;5115948;28;20097;-89
2021/04/23 06:46:19;;;;;;;8.13;4.15;;;6.70;99.90;;;;;;5113243;28;20019;-87
2021/04/23 06:48:48;;;;;;;8.77;4.35;;;6.80;99.90;;;;;;5114169;28;20054;-86
2021/04/23 06:51:15;;;;;;;13.25;4.72;;;6.80;99.90;;;;;;5112846;28;20057;-84
2021/04/23 06:53:41;;;;;;;10.30;4.13;;;6.90;99.90;;;;;;5113392;28;20106;-84
2021/04/23 06:56:07;;;;;;;10.05;4.18;;;7.00;99.90;;;;;;5114089;28;20023;-83
2021/04/23 06:58:33;;;;;;;8.50;3.60;;;7.10;99.90;;;;;;5113913;28;20034;-84
2021/04/23 07:00:59;;;;;;;9.50;4.00;;;7.10;99.90;;;;;;5113355;28;20043;-85
2021/04/23 07:03:25;;;;;;;7.40;4.25;;;7.20;99.90;;;;;;5113947;28;20048;-86
2021/04/23 07:05:52;;;;;;;11.20;4.00;;;7.30;99.90;;;;;;5113232;28;20020;-85
2021/04/23 07:08:18;;;;;;;7.30;3.90;;;7.40;99.90;;;;;;5113418;28;20028;-85
2021/04/23 07:10:44;;;;;;;11.63;3.60;;;7.60;99.90;;;;;;5113621;28;20042;-85
2021/04/23 07:13:10;;;;;;;9.10;3.78;;;7.60;99.90;;;;;;5113702;28;20020;-83
2021/04/23 07:15:36;;;;;;;13.52;4.10;;;7.70;99.90;;;;;;5114278;28;20020;-86
2021/04/23 07:18:02;;;;;;;8.05;3.60;;;7.80;99.90;;;;;;5115552;28;20054;-84
2021/04/23 07:20:29;;;;;;;12.93;4.43;;;7.90;99.90;;;;;;5118856;28;20067;-85
2021/04/23 07:22:55;;;;;;;8.90;3.50;;;7.90;99.90;;;;;;5119315;28;20024;-85
2021/04/23 07:25:22;;;;;;;9.45;3.28;;;8.00;99.90;;;;;;5116189;28;20039;-86
2021/04/23 07:27:48;;;;;;;6.88;2.95;;;8.10;99.80;;;;;;5116254;28;20081;-85
2021/04/23 07:30:20;;;;;;;7.20;3.13;;;8.10;99.70;;;;;;5115030;28;20016;-84
2021/04/23 07:32:47;;;;;;;8.55;2.83;;;8.20;99.60;;;;;;5114429;28;20465;-84
2021/04/23 07:35:14;;;;;;;8.07;2.90;;;8.20;99.60;;;;;;5114293;28;20042;-83
2021/04/23 07:37:40;;;;;;;8.68;2.47;;;8.30;99.60;;;;;;5114784;28;20036;-89
2021/04/23 07:40:08;;;;;;;7.45;2.63;;;8.40;99.40;;;;;;5115745;28;20032;-86
2021/04/23 07:42:34;;;;;;;8.00;2.83;;;8.50;99.20;;;;;;5116435;28;20053;-88
2021/04/23 07:45:02;;;;;;;8.38;2.67;;;8.60;99.20;;;;;;5115205;28;20695;-88
2021/04/23 07:47:28;;;;;;;8.68;2.78;;;8.70;98.80;;;;;;5115323;28;20385;-83
2021/04/23 07:49:54;;;;;;;4.93;1.90;;;8.70;98.70;;;;;;5116167;28;20024;-86
2021/04/23 07:52:19;;;;;;;6.00;2.08;;;8.70;98.40;;;;;;5116016;28;20031;-89
2021/04/23 07:54:45;;;;;;;6.60;1.88;;;8.70;98.30;;;;;;5118612;28;20015;-87
2021/04/23 07:57:11;;;;;;;6.65;2.08;;;8.80;98.20;;;;;;5119366;28;20063;-85
2021/04/23 07:59:38;;;;;;;7.20;1.40;;;8.80;98.00;;;;;;5119557;28;20012;-85
2021/04/23 08:02:05;;;;;;;4.47;1.23;;;8.90;97.90;;;;;;5122931;28;20038;-82
2021/04/23 08:04:32;;;;;;;5.03;1.25;;;9.00;97.60;;;;;;5119627;28;20028;-86
2021/04/23 08:06:59;;;;;;;5.25;1.30;;;9.20;97.50;;;;;;5122605;28;20041;-85
2021/04/23 08:09:24;;;;;;;4.72;1.73;;;9.40;97.20;;;;;;5122643;28;20012;-83
2021/04/23 08:11:50;;;;;;;6.60;1.08;;;9.40;96.90;;;;;;5117045;28;20049;-85
2021/04/23 08:14:16;;;;;;;4.85;1.05;;;9.50;96.70;;;;;;5116383;28;20195;-86
2021/04/23 08:16:41;;;;;;;4.75;1.30;;;9.60;96.60;;;;;;5117847;28;20038;-85
2021/04/23 08:19:07;;;;;;;5.65;1.40;;;9.60;96.40;;;;;;5115887;28;20477;-86
2021/04/23 08:21:33;;;;;;;5.18;1.25;;;9.60;96.00;;;;;;5115969;28;20427;-85
2021/04/23 08:23:58;;;;;;;7.43;1.90;;;9.60;96.00;;;;;;5115543;28;20114;-86
2021/04/23 08:26:25;;;;;;;6.55;1.55;;;9.70;95.50;;;;;;5116733;28;20449;-86
2021/04/23 08:28:51;;;;;;;6.57;1.42;;;9.80;95.10;;;;;;5117105;28;20024;-82
2021/04/23 08:31:17;;;;;;;7.10;1.40;;;9.80;95.20;;;;;;5122281;28;20047;-80
2021/04/23 08:33:43;;;;;;;6.97;1.73;;;9.90;95.20;;;;;;5116144;28;20027;-85
2021/04/23 08:36:09;;;;;;;7.70;1.35;;;10.10;94.90;;;;;;5118657;28;20019;-81
2021/04/23 08:38:34;;;;;;;8.10;1.70;;;10.20;94.80;;;;;;5122621;28;20096;-82
2021/04/23 08:41:01;;;;;;;4.95;1.55;;;10.40;94.40;;;;;;5119415;28;20172;-81
2021/04/23 08:43:27;;;;;;;5.10;1.20;;;10.50;94.20;;;;;;5113697;28;20030;-85
2021/04/23 08:45:53;;;;;;;5.90;2.25;;;10.60;94.20;;;;;;5119695;28;20046;-87
2021/04/23 08:48:21;;;;;;;5.75;1.60;;;10.70;93.50;;;;;;5112874;28;20064;-84
2021/04/23 08:50:48;;;;;;;8.77;1.45;;;10.70;93.20;;;;;;5103616;28;20167;-86
2021/04/23 08:53:17;;;;;;;6.40;1.60;;;10.80;93.00;;;;;;5095166;28;20054;-86
2021/04/23 08:55:43;;;;;;;5.63;1.60;;;10.80;92.60;;;;;;5093640;28;20028;-86
2021/04/23 08:58:13;;;;;;;3.90;1.10;;;10.90;92.70;;;;;;5090104;28;20121;-82
2021/04/23 09:00:39;;;;;;;4.40;1.60;;;11.00;92.80;;;;;;5088483;28;20048;-85
2021/04/23 09:03:08;;;;;;;5.68;1.48;;;11.20;92.60;;;;;;5091094;28;20035;-83
2021/04/23 09:05:36;;;;;;;5.85;1.52;;;11.40;92.30;;;;;;5098636;28;20583;-83
2021/04/23 09:08:07;;;;;;;7.63;1.52;;;11.50;91.60;;;;;;5093502;28;20035;-84
2021/04/23 09:10:35;;;;;;;6.20;1.33;;;11.60;91.80;;;;;;5096786;28;20393;-83
2021/04/23 09:13:13;;;;;;;8.90;2.25;;;11.70;91.50;;;;;;5111011;28;20024;-84
2021/04/23 09:15:41;;;;;;;5.65;1.58;;;11.70;91.10;;;;;;5113145;28;20034;-83
2021/04/23 09:18:12;;;;;;;7.88;2.20;;;11.60;91.00;;;;;;5111124;28;20474;-84
2021/04/23 09:20:46;;;;;;;6.82;1.85;;;11.40;91.00;;;;;;5111284;28;20084;-83
2021/04/23 09:23:22;;;;;;;9.18;2.15;;;11.20;90.90;;;;;;5111220;28;20089;-85
2021/04/23 09:25:52;;;;;;;6.15;1.67;;;11.00;91.40;;;;;;5111141;28;20020;-84
2021/04/23 09:28:32;;;;;;;10.20;2.42;;;11.00;91.50;;;;;;5111806;28;20069;-89
2021/04/23 09:31:18;;;;;;;6.80;2.22;;;11.00;91.30;;;;;;5116054;28;20053;-86
2021/04/23 09:33:59;;;;;;;7.47;2.20;;;11.00;91.50;;;;;;5115843;28;20030;-81
2021/04/23 09:36:30;;;;;;;6.03;2.20;;;11.20;91.90;;;;;;5115333;28;20035;-81
2021/04/23 09:39:12;;;;;;;6.38;2.63;;;12.10;91.30;;;;;;5122983;28;20016;-80
2021/04/23 09:41:40;;;;;;;10.25;2.58;;;13.60;90.40;;;;;;5118922;28;20032;-85
2021/04/23 09:44:26;;;;;;;5.85;2.20;;;14.70;86.80;;;;;;5113250;28;20509;-88
2021/04/23 09:47:19;;;;;;;6.82;1.70;;;15.80;84.80;;;;;;5112189;28;20122;-84
2021/04/23 09:49:50;;;;;;;7.47;2.13;;;16.40;82.00;;;;;;5111678;28;20080;-84
2021/04/23 09:52:16;;;;;;;6.18;2.13;;;16.90;81.70;;;;;;5112405;28;20027;-85
2021/04/23 09:55:03;;;;;;;6.28;1.85;;;17.60;80.30;;;;;;5112507;28;20404;-85
2021/04/23 09:57:36;;;;;;;5.28;2.00;;;18.10;77.20;;;;;;5113463;28;20386;-83
2021/04/23 10:00:07;;;;;;;8.88;1.85;;;18.60;76.80;;;;;;5113357;28;20028;-84
2021/04/23 10:02:34;;;;;;;4.30;1.50;;;19.10;74.50;;;;;;5113930;28;20046;-84
2021/04/23 10:05:00;;;;;;;4.32;1.42;;;19.30;72.50;;;;;;5096344;28;20469;-84
2021/04/23 10:07:31;;;;;;;7.85;2.22;;;19.50;71.80;;;;;;5113465;28;20028;-85
2021/04/23 10:10:11;;;;;;;8.30;2.10;;;19.80;69.50;;;;;;5113174;28;20054;-84
2021/04/23 10:12:38;;;;;;;4.97;1.90;;;19.70;67.30;;;;;;5114110;28;20036;-84
2021/04/23 10:15:13;;;;;;;5.65;2.00;;;19.80;67.30;;;;;;5113696;28;20019;-85
2021/04/23 10:17:41;;;;;;;5.40;1.70;;;19.90;65.70;;;;;;5114536;28;20023;-85
2021/04/23 10:20:08;;;;;;;6.55;2.25;;;19.70;64.90;;;;;;5113636;28;20106;-84
2021/04/23 10:22:34;;;;;;;8.10;2.28;;;19.30;64.80;;;;;;5114756;28;20131;-86
2021/04/23 10:25:00;;;;;;;4.55;1.73;;;19.40;65.30;;;;;;5113569;28;20597;-85
2021/04/23 10:27:26;;;;;;;7.43;1.90;;;18.90;66.00;;;;;;5096053;28;20020;-88
2021/04/23 10:29:52;;;;;;;5.65;1.52;;;18.10;66.20;;;;;;5108234;28;20038;-88
2021/04/23 10:32:20;;;;;;;6.35;2.25;;;18.20;69.40;;;;;;5101602;28;20032;-86
2021/04/23 10:34:47;;;;;;;4.25;1.70;;;18.80;67.60;;;;;;5099519;28;20023;-89
2021/04/23 10:37:13;;;;;;;6.18;1.73;;;19.30;66.20;;;;;;5094971;28;20031;-84
2021/04/23 10:39:46;;;;;;;7.55;2.03;;;20.00;65.20;;;;;;5093591;28;20115;-87
2021/04/23 10:42:46;;;;;;;4.75;1.80;;;20.40;63.60;;;;;;5096274;28;20028;-83
2021/04/23 10:45:35;;;;;;;8.05;1.80;;;20.70;63.50;;;;;;5101850;28;20089;-80
2021/04/23 10:48:22;;;;;;;8.02;1.90;;;21.00;63.70;;;;;;5102975;28;20615;-79
2021/04/23 10:50:49;;;;;;;7.93;2.10;;;21.20;61.30;;;;;;5116846;28;20024;-86
2021/04/23 10:53:32;;;;;;;7.93;1.67;;;21.00;60.80;;;;;;5119288;28;20477;-85
2021/04/23 10:56:06;;;;;;;4.05;1.50;;;21.10;60.20;;;;;;5116915;28;20610;-82
2021/04/23 10:58:32;;;;;;;6.20;1.58;;;21.60;59.70;;;;;;5103598;28;20052;-85
2021/04/23 11:01:21;;;;;;;6.13;2.13;;;22.00;58.80;;;;;;5092716;28;20110;-83
2021/04/23 11:04:04;;;;;;;6.53;1.80;;;22.10;58.10;;;;;;5100772;28;20016;-83
2021/04/23 11:06:36;;;;;;;5.05;1.40;;;21.80;58.00;;;;;;5112290;28;20027;-87
2021/04/23 11:09:02;;;;;;;4.68;1.27;;;21.40;57.40;;;;;;5110481;28;20036;-80
2021/04/23 11:11:38;;;;;;;5.63;1.58;;;20.90;58.20;;;;;;5110133;28;20035;-84
2021/04/23 11:14:27;;;;;;;3.80;1.48;;;20.60;58.50;;;;;;5117543;28;20058;-83
2021/04/23 11:16:55;;;;;;;6.30;1.83;;;20.80;58.80;;;;;;5118240;28;20028;-86
2021/04/23 11:19:20;;;;;;;5.53;1.52;;;20.80;57.80;;;;;;5106981;28;20382;-82
2021/04/23 11:21:50;;;;;;;3.88;1.20;;;20.90;57.40;;;;;;5095647;28;20021;-85
2021/04/23 11:24:21;;;;;;;4.90;2.10;;;21.70;57.40;;;;;;5095833;28;20032;-82
2021/04/23 11:26:53;;;;;;;5.60;1.92;;;22.20;57.10;;;;;;5106699;28;20027;-88
2021/04/23 11:29:20;;;;;;;9.18;2.22;;;22.70;56.00;;;;;;5116446;28;20045;-80
2021/04/23 11:32:17;;;;;;;5.25;2.00;;;23.20;55.20;;;;;;5116071;28;20120;-85
2021/04/23 11:34:45;;;;;;;7.95;2.00;;;23.60;52.70;;;;;;5107853;28;20027;-85
2021/04/23 11:37:15;;;;;;;4.53;1.65;;;23.70;53.10;;;;;;5115958;28;20044;-80
2021/04/23 11:39:47;;;;;;;4.97;1.70;;;23.80;51.50;;;;;;5125193;28;20043;-86
2021/04/23 11:42:16;;;;;;;4.40;1.52;;;23.80;51.30;;;;;;5115454;28;20131;-86
2021/04/23 11:44:53;;;;;;;7.55;2.40;;;23.60;52.10;;;;;;5121343;28;20579;-83
2021/04/23 11:47:25;;;;;;;4.47;1.73;;;23.90;51.20;;;;;;5125788;28;20034;-81
2021/04/23 11:50:00;;;;;;;4.78;1.70;;;24.00;51.30;;;;;;5123354;28;20117;-83
2021/04/23 11:52:30;;;;;;;3.17;1.40;;;24.50;50.90;;;;;;5124617;28;20026;-82
2021/04/23 11:54:55;;;;;;;5.40;1.80;;;24.60;50.50;;;;;;5125333;28;20053;-84
2021/04/23 11:57:27;;;;;;;4.75;1.73;;;24.50;50.20;;;;;;5122043;28;20087;-87
2021/04/23 12:00:22;;;;;;;6.85;1.77;;;24.40;50.50;;;;;;5119502;28;20020;-87
2021/04/23 12:02:55;;;;;;;6.22;1.67;;;23.70;50.30;;;;;;5118717;28;20413;-87
2021/04/23 12:05:25;;;;;;;3.60;1.30;;;22.90;51.80;;;;;;5120620;28;20103;-86
2021/04/23 12:07:53;;;;;;;4.10;1.38;;;22.10;52.50;;;;;;5126015;28;20032;-84
2021/04/23 12:10:21;;;;;;;5.15;1.40;;;21.30;53.00;;;;;;5126170;28;20031;-82
2021/04/23 12:12:47;;;;;;;3.78;1.42;;;20.60;52.90;;;;;;5127609;28;20027;-85
2021/04/23 12:15:26;;;;;;;5.05;1.67;;;20.70;53.70;;;;;;5125585;28;20059;-80
2021/04/23 12:17:52;;;;;;;5.53;1.63;;;21.90;52.50;;;;;;5129218;28;20053;-80
2021/04/23 12:20:28;;;;;;;4.38;1.48;;;23.10;50.80;;;;;;5129420;28;20047;-83
2021/04/23 12:22:54;;;;;;;6.20;1.70;;;24.10;49.50;;;;;;5123653;28;20031;-85
2021/04/23 12:25:33;;;;;;;37.58;4.35;;;24.50;48.10;;;;;;5119918;28;20064;-87
2021/04/23 12:28:23;;;;;;;9.65;2.10;;;24.60;48.00;;;;;;5116984;28;20053;-86
2021/04/23 12:31:10;;;;;;;7.32;1.60;;;24.20;50.20;;;;;;5098593;28;20462;-88
2021/04/23 12:34:10;;;;;;;5.03;1.52;;;23.50;49.80;;;;;;5096479;28;20074;-88
2021/04/23 12:36:37;;;;;;;2.95;1.10;;;22.80;49.50;;;;;;5097763;28;20030;-86
2021/04/23 12:39:08;;;;;;;5.00;1.58;;;22.20;50.30;;;;;;5095854;28;20063;-85
2021/04/23 12:41:36;;;;;;;7.88;1.48;;;22.70;50.20;;;;;;5100611;28;20063;-84
2021/04/23 12:44:05;;;;;;;5.57;1.75;;;23.50;49.50;;;;;;5098208;28;20035;-87
2021/04/23 12:46:34;;;;;;;4.50;1.30;;;24.20;48.30;;;;;;5097738;28;20024;-87
2021/04/23 12:49:22;;;;;;;5.95;1.27;;;24.50;48.20;;;;;;5114238;28;20414;-85
2021/04/23 12:52:00;;;;;;;5.03;1.80;;;24.70;47.20;;;;;;5120541;28;20020;-87
2021/04/23 12:54:35;;;;;;;5.20;2.00;;;24.70;45.90;;;;;;5118893;28;20088;-85
2021/04/23 12:57:07;;;;;;;6.63;1.92;;;24.60;48.00;;;;;;5116763;28;20024;-84
2021/04/23 12:59:39;;;;;;;6.35;1.50;;;24.60;47.30;;;;;;5117183;28;20027;-83
2021/04/23 13:02:10;;;;;;;7.10;1.95;;;24.80;47.40;;;;;;5113708;28;20054;-87